sensor_id;sensor_type;location;lat;lon;timestamp;P1;durP1;ratioP1;P2;durP2;ratioP2
32824;SDS011;51060;42.640;24.356;2023-05-10T00:00:20;3.33;;;2.30;;
32824;SDS011;51060;42.640;24.356;2023-05-10T00:02:47;2.93;;;2.30;;
32824;SDS011;51060;42.640;24.356;2023-05-10T00:05:13;2.60;;;2.20;;
32824;SDS011;51060;42.640;24.356;2023-05-10T00:07:39;3.50;;;2.93;;
32824;SDS011;51060;42.640;24.356;2023-05-10T00:10:05;3.50;;;2.87;;
32824;SDS011;51060;42.640;24.356;2023-05-10T00:12:32;4.33;;;3.20;;
32824;SDS011;51060;42.640;24.356;2023-05-10T00:14:57;3.60;;;3.30;;
32824;SDS011;51060;42.640;24.356;2023-05-10T00:17:23;3.83;;;3.40;;
32824;SDS011;51060;42.640;24.356;2023-05-10T00:19:48;5.07;;;3.30;;
32824;SDS011;51060;42.640;24.356;2023-05-10T00:22:14;4.07;;;3.00;;
32824;SDS011;51060;42.640;24.356;2023-05-10T00:24:39;4.27;;;3.07;;
32824;SDS011;51060;42.640;24.356;2023-05-10T00:27:05;4.80;;;3.43;;
32824;SDS011;51060;42.640;24.356;2023-05-10T00:29:30;2.77;;;2.43;;
32824;SDS011;51060;42.640;24.356;2023-05-10T00:31:56;2.60;;;2.40;;
32824;SDS011;51060;42.640;24.356;2023-05-10T00:34:22;2.37;;;2.17;;
32824;SDS011;51060;42.640;24.356;2023-05-10T00:36:48;3.87;;;2.83;;
32824;SDS011;51060;42.640;24.356;2023-05-10T00:39:13;2.80;;;2.47;;
32824;SDS011;51060;42.640;24.356;2023-05-10T00:41:39;3.37;;;2.80;;
32824;SDS011;51060;42.640;24.356;2023-05-10T00:44:04;4.50;;;3.00;;
32824;SDS011;51060;42.640;24.356;2023-05-10T00:46:30;3.80;;;3.13;;
32824;SDS011;51060;42.640;24.356;2023-05-10T00:48:56;4.40;;;3.77;;
32824;SDS011;51060;42.640;24.356;2023-05-10T00:51:22;3.77;;;3.43;;
32824;SDS011;51060;42.640;24.356;2023-05-10T00:53:48;4.17;;;3.70;;
32824;SDS011;51060;42.640;24.356;2023-05-10T00:56:16;4.87;;;4.20;;
32824;SDS011;51060;42.640;24.356;2023-05-10T00:58:42;4.83;;;4.10;;
32824;SDS011;51060;42.640;24.356;2023-05-10T01:01:08;5.17;;;4.50;;
32824;SDS011;51060;42.640;24.356;2023-05-10T01:03:34;3.93;;;3.53;;
32824;SDS011;51060;42.640;24.356;2023-05-10T01:06:00;4.33;;;3.93;;
32824;SDS011;51060;42.640;24.356;2023-05-10T01:08:26;4.97;;;4.33;;
32824;SDS011;51060;42.640;24.356;2023-05-10T01:10:52;4.87;;;3.60;;
32824;SDS011;51060;42.640;24.356;2023-05-10T01:13:30;5.47;;;4.17;;
32824;SDS011;51060;42.640;24.356;2023-05-10T01:15:57;5.30;;;4.60;;
32824;SDS011;51060;42.640;24.356;2023-05-10T01:18:23;4.50;;;4.10;;
32824;SDS011;51060;42.640;24.356;2023-05-10T01:26:29;7.67;;;5.50;;
32824;SDS011;51060;42.640;24.356;2023-05-10T01:32:08;5.37;;;4.60;;
32824;SDS011;51060;42.640;24.356;2023-05-10T01:37:33;6.53;;;4.27;;
32824;SDS011;51060;42.640;24.356;2023-05-10T01:40:01;5.83;;;4.73;;
32824;SDS011;51060;42.640;24.356;2023-05-10T01:42:38;5.57;;;4.30;;
32824;SDS011;51060;42.640;24.356;2023-05-10T01:45:11;5.37;;;4.20;;
32824;SDS011;51060;42.640;24.356;2023-05-10T01:47:44;5.10;;;4.50;;
32824;SDS011;51060;42.640;24.356;2023-05-10T01:50:23;4.50;;;4.10;;
32824;SDS011;51060;42.640;24.356;2023-05-10T01:52:53;5.93;;;4.03;;
32824;SDS011;51060;42.640;24.356;2023-05-10T01:55:20;7.70;;;4.40;;
32824;SDS011;51060;42.640;24.356;2023-05-10T01:57:49;8.20;;;4.70;;
32824;SDS011;51060;42.640;24.356;2023-05-10T02:00:16;4.70;;;4.30;;
32824;SDS011;51060;42.640;24.356;2023-05-10T02:02:47;5.20;;;4.30;;
32824;SDS011;51060;42.640;24.356;2023-05-10T02:05:14;4.77;;;4.27;;
32824;SDS011;51060;42.640;24.356;2023-05-10T02:07:40;6.20;;;4.80;;
32824;SDS011;51060;42.640;24.356;2023-05-10T02:10:06;4.57;;;4.17;;
32824;SDS011;51060;42.640;24.356;2023-05-10T02:12:41;4.77;;;3.93;;
32824;SDS011;51060;42.640;24.356;2023-05-10T02:15:07;4.70;;;3.83;;
32824;SDS011;51060;42.640;24.356;2023-05-10T02:17:34;4.23;;;3.70;;
32824;SDS011;51060;42.640;24.356;2023-05-10T02:20:01;5.33;;;4.33;;
32824;SDS011;51060;42.640;24.356;2023-05-10T02:22:28;6.07;;;4.30;;
32824;SDS011;51060;42.640;24.356;2023-05-10T02:24:55;5.33;;;4.10;;
32824;SDS011;51060;42.640;24.356;2023-05-10T02:27:21;5.27;;;4.77;;
32824;SDS011;51060;42.640;24.356;2023-05-10T02:29:48;5.57;;;5.00;;
32824;SDS011;51060;42.640;24.356;2023-05-10T02:32:15;6.10;;;5.23;;
32824;SDS011;51060;42.640;24.356;2023-05-10T02:34:41;9.83;;;7.00;;
32824;SDS011;51060;42.640;24.356;2023-05-10T02:37:07;5.97;;;4.93;;
32824;SDS011;51060;42.640;24.356;2023-05-10T02:39:33;6.87;;;4.40;;
32824;SDS011;51060;42.640;24.356;2023-05-10T02:41:59;5.70;;;4.47;;
32824;SDS011;51060;42.640;24.356;2023-05-10T02:44:26;5.37;;;4.77;;
32824;SDS011;51060;42.640;24.356;2023-05-10T02:46:52;5.73;;;4.40;;
32824;SDS011;51060;42.640;24.356;2023-05-10T02:49:20;4.67;;;3.77;;
32824;SDS011;51060;42.640;24.356;2023-05-10T02:51:57;5.03;;;4.33;;
32824;SDS011;51060;42.640;24.356;2023-05-10T02:54:27;5.53;;;3.87;;
32824;SDS011;51060;42.640;24.356;2023-05-10T02:56:59;6.43;;;4.17;;
32824;SDS011;51060;42.640;24.356;2023-05-10T02:59:26;5.80;;;4.67;;
32824;SDS011;51060;42.640;24.356;2023-05-10T03:01:52;6.33;;;5.10;;
32824;SDS011;51060;42.640;24.356;2023-05-10T03:04:18;7.83;;;6.07;;
32824;SDS011;51060;42.640;24.356;2023-05-10T03:06:43;7.03;;;5.77;;
32824;SDS011;51060;42.640;24.356;2023-05-10T03:09:09;5.90;;;4.87;;
32824;SDS011;51060;42.640;24.356;2023-05-10T03:14:26;7.73;;;5.17;;
32824;SDS011;51060;42.640;24.356;2023-05-10T03:17:39;6.47;;;4.80;;
32824;SDS011;51060;42.640;24.356;2023-05-10T03:19:55;9.73;;;6.23;;
32824;SDS011;51060;42.640;24.356;2023-05-10T03:22:26;12.50;;;8.10;;
32824;SDS011;51060;42.640;24.356;2023-05-10T03:24:57;13.57;;;9.40;;
32824;SDS011;51060;42.640;24.356;2023-05-10T03:27:23;14.87;;;9.40;;
32824;SDS011;51060;42.640;24.356;2023-05-10T03:29:50;12.33;;;8.77;;
32824;SDS011;51060;42.640;24.356;2023-05-10T03:32:16;11.10;;;8.67;;
32824;SDS011;51060;42.640;24.356;2023-05-10T03:34:42;9.87;;;7.17;;
32824;SDS011;51060;42.640;24.356;2023-05-10T03:37:10;9.20;;;7.77;;
32824;SDS011;51060;42.640;24.356;2023-05-10T03:39:36;9.07;;;7.93;;
32824;SDS011;51060;42.640;24.356;2023-05-10T03:42:01;10.47;;;8.80;;
32824;SDS011;51060;42.640;24.356;2023-05-10T03:44:30;9.00;;;8.10;;
32824;SDS011;51060;42.640;24.356;2023-05-10T03:46:58;12.23;;;9.63;;
32824;SDS011;51060;42.640;24.356;2023-05-10T03:49:24;12.53;;;10.87;;
32824;SDS011;51060;42.640;24.356;2023-05-10T03:51:49;13.13;;;11.73;;
32824;SDS011;51060;42.640;24.356;2023-05-10T03:54:15;11.70;;;10.50;;
32824;SDS011;51060;42.640;24.356;2023-05-10T03:56:41;9.77;;;8.77;;
32824;SDS011;51060;42.640;24.356;2023-05-10T03:59:06;10.07;;;8.50;;
32824;SDS011;51060;42.640;24.356;2023-05-10T04:01:34;9.33;;;8.33;;
32824;SDS011;51060;42.640;24.356;2023-05-10T04:04:02;14.87;;;10.60;;
32824;SDS011;51060;42.640;24.356;2023-05-10T04:06:29;16.13;;;11.37;;
32824;SDS011;51060;42.640;24.356;2023-05-10T04:08:54;14.00;;;11.40;;
32824;SDS011;51060;42.640;24.356;2023-05-10T04:11:20;14.53;;;11.47;;
32824;SDS011;51060;42.640;24.356;2023-05-10T04:13:47;13.90;;;11.67;;
32824;SDS011;51060;42.640;24.356;2023-05-10T04:16:12;15.20;;;13.33;;
32824;SDS011;51060;42.640;24.356;2023-05-10T04:18:38;13.97;;;11.67;;
32824;SDS011;51060;42.640;24.356;2023-05-10T04:21:04;12.97;;;10.77;;
32824;SDS011;51060;42.640;24.356;2023-05-10T04:23:37;13.70;;;11.83;;
32824;SDS011;51060;42.640;24.356;2023-05-10T04:26:02;23.33;;;17.57;;
32824;SDS011;51060;42.640;24.356;2023-05-10T04:28:28;22.87;;;17.93;;
32824;SDS011;51060;42.640;24.356;2023-05-10T04:31:00;13.97;;;12.40;;
32824;SDS011;51060;42.640;24.356;2023-05-10T04:33:28;16.80;;;12.77;;
32824;SDS011;51060;42.640;24.356;2023-05-10T04:35:53;15.63;;;13.97;;
32824;SDS011;51060;42.640;24.356;2023-05-10T04:38:19;24.23;;;20.93;;
32824;SDS011;51060;42.640;24.356;2023-05-10T04:40:45;17.37;;;13.40;;
32824;SDS011;51060;42.640;24.356;2023-05-10T04:43:10;13.00;;;11.00;;
32824;SDS011;51060;42.640;24.356;2023-05-10T04:45:36;10.07;;;8.20;;
32824;SDS011;51060;42.640;24.356;2023-05-10T04:48:01;9.87;;;8.23;;
32824;SDS011;51060;42.640;24.356;2023-05-10T04:50:27;13.17;;;10.23;;
32824;SDS011;51060;42.640;24.356;2023-05-10T04:52:52;14.63;;;10.23;;
32824;SDS011;51060;42.640;24.356;2023-05-10T04:55:18;9.13;;;7.77;;
32824;SDS011;51060;42.640;24.356;2023-05-10T04:57:44;7.33;;;5.70;;
32824;SDS011;51060;42.640;24.356;2023-05-10T05:00:10;8.37;;;5.33;;
32824;SDS011;51060;42.640;24.356;2023-05-10T05:02:36;7.63;;;6.07;;
32824;SDS011;51060;42.640;24.356;2023-05-10T05:05:01;9.10;;;5.90;;
32824;SDS011;51060;42.640;24.356;2023-05-10T05:07:27;9.43;;;6.60;;
32824;SDS011;51060;42.640;24.356;2023-05-10T05:09:53;10.60;;;7.80;;
32824;SDS011;51060;42.640;24.356;2023-05-10T05:12:18;14.30;;;8.80;;
32824;SDS011;51060;42.640;24.356;2023-05-10T05:14:44;15.30;;;9.00;;
32824;SDS011;51060;42.640;24.356;2023-05-10T05:17:09;12.47;;;8.30;;
32824;SDS011;51060;42.640;24.356;2023-05-10T05:19:35;6.73;;;5.50;;
32824;SDS011;51060;42.640;24.356;2023-05-10T05:22:01;7.93;;;4.80;;
32824;SDS011;51060;42.640;24.356;2023-05-10T05:24:26;6.97;;;5.37;;
32824;SDS011;51060;42.640;24.356;2023-05-10T05:26:52;7.43;;;6.00;;
32824;SDS011;51060;42.640;24.356;2023-05-10T05:29:17;18.90;;;9.50;;
32824;SDS011;51060;42.640;24.356;2023-05-10T05:31:43;14.73;;;9.47;;
32824;SDS011;51060;42.640;24.356;2023-05-10T05:34:09;17.17;;;9.80;;
32824;SDS011;51060;42.640;24.356;2023-05-10T05:36:35;14.33;;;10.37;;
32824;SDS011;51060;42.640;24.356;2023-05-10T05:39:06;15.00;;;9.63;;
32824;SDS011;51060;42.640;24.356;2023-05-10T05:41:31;12.00;;;9.03;;
32824;SDS011;51060;42.640;24.356;2023-05-10T05:43:57;8.87;;;7.27;;
32824;SDS011;51060;42.640;24.356;2023-05-10T05:46:22;9.20;;;7.53;;
32824;SDS011;51060;42.640;24.356;2023-05-10T05:48:48;10.30;;;7.93;;
32824;SDS011;51060;42.640;24.356;2023-05-10T05:51:13;10.80;;;8.63;;
32824;SDS011;51060;42.640;24.356;2023-05-10T05:53:39;9.33;;;6.97;;
32824;SDS011;51060;42.640;24.356;2023-05-10T05:56:05;5.83;;;5.23;;
32824;SDS011;51060;42.640;24.356;2023-05-10T05:58:30;8.67;;;7.37;;
32824;SDS011;51060;42.640;24.356;2023-05-10T06:00:56;8.73;;;7.83;;
32824;SDS011;51060;42.640;24.356;2023-05-10T06:03:22;8.00;;;7.20;;
32824;SDS011;51060;42.640;24.356;2023-05-10T06:05:50;8.57;;;6.13;;
32824;SDS011;51060;42.640;24.356;2023-05-10T06:08:15;7.63;;;5.60;;
32824;SDS011;51060;42.640;24.356;2023-05-10T06:10:41;8.53;;;6.47;;
32824;SDS011;51060;42.640;24.356;2023-05-10T06:25:16;7.33;;;5.50;;
32824;SDS011;51060;42.640;24.356;2023-05-10T06:27:43;5.73;;;5.13;;
32824;SDS011;51060;42.640;24.356;2023-05-10T06:30:09;7.07;;;5.07;;
32824;SDS011;51060;42.640;24.356;2023-05-10T06:32:35;6.87;;;5.67;;
32824;SDS011;51060;42.640;24.356;2023-05-10T06:35:01;6.40;;;5.73;;
32824;SDS011;51060;42.640;24.356;2023-05-10T06:37:26;5.73;;;4.73;;
32824;SDS011;51060;42.640;24.356;2023-05-10T06:39:52;5.43;;;4.47;;
32824;SDS011;51060;42.640;24.356;2023-05-10T06:42:17;5.57;;;4.00;;
32824;SDS011;51060;42.640;24.356;2023-05-10T06:44:43;7.23;;;5.70;;
32824;SDS011;51060;42.640;24.356;2023-05-10T06:47:08;6.93;;;5.83;;
32824;SDS011;51060;42.640;24.356;2023-05-10T06:49:34;5.72;;;5.00;;
32824;SDS011;51060;42.640;24.356;2023-05-10T06:52:00;7.00;;;6.33;;
32824;SDS011;51060;42.640;24.356;2023-05-10T06:54:26;6.13;;;4.87;;
32824;SDS011;51060;42.640;24.356;2023-05-10T06:56:54;5.78;;;4.25;;
32824;SDS011;51060;42.640;24.356;2023-05-10T06:59:20;3.70;;;3.40;;
32824;SDS011;51060;42.640;24.356;2023-05-10T07:01:46;4.27;;;3.60;;
32824;SDS011;51060;42.640;24.356;2023-05-10T07:04:12;3.45;;;3.15;;
32824;SDS011;51060;42.640;24.356;2023-05-10T07:06:38;6.25;;;5.75;;
32824;SDS011;51060;42.640;24.356;2023-05-10T07:09:04;4.63;;;4.23;;
32824;SDS011;51060;42.640;24.356;2023-05-10T07:11:29;4.65;;;3.50;;
32824;SDS011;51060;42.640;24.356;2023-05-10T07:13:55;6.10;;;5.20;;
32824;SDS011;51060;42.640;24.356;2023-05-10T07:16:20;4.60;;;4.10;;
32824;SDS011;51060;42.640;24.356;2023-05-10T07:18:46;6.47;;;5.50;;
32824;SDS011;51060;42.640;24.356;2023-05-10T07:21:12;6.25;;;5.03;;
32824;SDS011;51060;42.640;24.356;2023-05-10T07:23:37;5.50;;;4.20;;
32824;SDS011;51060;42.640;24.356;2023-05-10T07:26:03;6.53;;;4.13;;
32824;SDS011;51060;42.640;24.356;2023-05-10T07:28:29;6.43;;;5.22;;
32824;SDS011;51060;42.640;24.356;2023-05-10T07:30:54;5.85;;;5.20;;
32824;SDS011;51060;42.640;24.356;2023-05-10T07:33:20;5.68;;;4.63;;
32824;SDS011;51060;42.640;24.356;2023-05-10T07:35:45;13.35;;;8.65;;
32824;SDS011;51060;42.640;24.356;2023-05-10T07:38:11;8.93;;;7.53;;
32824;SDS011;51060;42.640;24.356;2023-05-10T07:40:38;9.30;;;8.33;;
32824;SDS011;51060;42.640;24.356;2023-05-10T07:43:04;9.52;;;8.63;;
32824;SDS011;51060;42.640;24.356;2023-05-10T07:45:30;7.97;;;7.07;;
32824;SDS011;51060;42.640;24.356;2023-05-10T07:47:56;9.20;;;6.50;;
32824;SDS011;51060;42.640;24.356;2023-05-10T07:50:21;20.05;;;12.68;;
32824;SDS011;51060;42.640;24.356;2023-05-10T07:52:47;11.32;;;8.05;;
32824;SDS011;51060;42.640;24.356;2023-05-10T07:55:13;6.00;;;5.32;;
32824;SDS011;51060;42.640;24.356;2023-05-10T07:57:38;5.77;;;4.70;;
32824;SDS011;51060;42.640;24.356;2023-05-10T08:00:05;7.70;;;5.70;;
32824;SDS011;51060;42.640;24.356;2023-05-10T08:02:32;9.25;;;7.47;;
32824;SDS011;51060;42.640;24.356;2023-05-10T08:04:58;4.68;;;4.07;;
32824;SDS011;51060;42.640;24.356;2023-05-10T08:07:24;7.90;;;6.57;;
32824;SDS011;51060;42.640;24.356;2023-05-10T08:09:52;4.97;;;4.35;;
32824;SDS011;51060;42.640;24.356;2023-05-10T08:12:17;5.87;;;4.40;;
32824;SDS011;51060;42.640;24.356;2023-05-10T08:14:43;43.40;;;27.90;;
32824;SDS011;51060;42.640;24.356;2023-05-10T08:17:08;33.45;;;20.70;;
32824;SDS011;51060;42.640;24.356;2023-05-10T08:19:34;14.43;;;10.73;;
32824;SDS011;51060;42.640;24.356;2023-05-10T08:21:59;10.30;;;8.68;;
32824;SDS011;51060;42.640;24.356;2023-05-10T08:24:25;5.13;;;4.60;;
32824;SDS011;51060;42.640;24.356;2023-05-10T08:26:51;4.10;;;3.75;;
32824;SDS011;51060;42.640;24.356;2023-05-10T08:29:16;10.25;;;7.38;;
32824;SDS011;51060;42.640;24.356;2023-05-10T08:31:42;13.10;;;8.63;;
32824;SDS011;51060;42.640;24.356;2023-05-10T08:34:07;8.10;;;5.82;;
32824;SDS011;51060;42.640;24.356;2023-05-10T08:36:33;9.63;;;7.00;;
32824;SDS011;51060;42.640;24.356;2023-05-10T08:38:58;24.35;;;14.63;;
32824;SDS011;51060;42.640;24.356;2023-05-10T08:41:24;9.88;;;6.70;;
32824;SDS011;51060;42.640;24.356;2023-05-10T08:43:53;9.70;;;6.00;;
32824;SDS011;51060;42.640;24.356;2023-05-10T08:46:20;17.70;;;10.70;;
32824;SDS011;51060;42.640;24.356;2023-05-10T08:48:46;9.40;;;5.85;;
32824;SDS011;51060;42.640;24.356;2023-05-10T08:51:14;7.47;;;5.80;;
32824;SDS011;51060;42.640;24.356;2023-05-10T08:53:42;15.77;;;10.15;;
32824;SDS011;51060;42.640;24.356;2023-05-10T08:56:08;10.88;;;6.95;;
32824;SDS011;51060;42.640;24.356;2023-05-10T08:58:34;9.98;;;6.20;;
32824;SDS011;51060;42.640;24.356;2023-05-10T09:01:00;12.63;;;8.75;;
32824;SDS011;51060;42.640;24.356;2023-05-10T09:03:26;9.60;;;7.13;;
32824;SDS011;51060;42.640;24.356;2023-05-10T09:05:51;5.22;;;4.60;;
32824;SDS011;51060;42.640;24.356;2023-05-10T09:08:17;6.53;;;5.03;;
32824;SDS011;51060;42.640;24.356;2023-05-10T09:10:43;7.65;;;6.10;;
32824;SDS011;51060;42.640;24.356;2023-05-10T09:13:13;7.55;;;6.38;;
32824;SDS011;51060;42.640;24.356;2023-05-10T09:15:39;8.32;;;6.68;;
32824;SDS011;51060;42.640;24.356;2023-05-10T09:18:05;10.73;;;6.23;;
32824;SDS011;51060;42.640;24.356;2023-05-10T09:20:30;5.97;;;5.13;;
32824;SDS011;51060;42.640;24.356;2023-05-10T09:22:56;16.42;;;10.80;;
32824;SDS011;51060;42.640;24.356;2023-05-10T09:25:25;9.85;;;7.93;;
32824;SDS011;51060;42.640;24.356;2023-05-10T09:27:52;11.60;;;8.20;;
32824;SDS011;51060;42.640;24.356;2023-05-10T09:30:23;6.25;;;5.43;;
32824;SDS011;51060;42.640;24.356;2023-05-10T09:32:53;7.03;;;5.22;;
32824;SDS011;51060;42.640;24.356;2023-05-10T09:35:20;6.13;;;5.25;;
32824;SDS011;51060;42.640;24.356;2023-05-10T09:37:49;8.10;;;5.22;;
32824;SDS011;51060;42.640;24.356;2023-05-10T09:40:16;6.22;;;5.55;;
32824;SDS011;51060;42.640;24.356;2023-05-10T09:42:56;5.72;;;5.13;;
32824;SDS011;51060;42.640;24.356;2023-05-10T09:45:31;9.63;;;7.78;;
32824;SDS011;51060;42.640;24.356;2023-05-10T09:47:58;11.13;;;9.03;;
32824;SDS011;51060;42.640;24.356;2023-05-10T09:50:24;6.17;;;5.10;;
32824;SDS011;51060;42.640;24.356;2023-05-10T09:52:53;5.30;;;4.80;;
32824;SDS011;51060;42.640;24.356;2023-05-10T09:55:22;7.30;;;5.95;;
32824;SDS011;51060;42.640;24.356;2023-05-10T09:57:48;7.10;;;6.25;;
32824;SDS011;51060;42.640;24.356;2023-05-10T10:00:18;6.30;;;5.03;;
32824;SDS011;51060;42.640;24.356;2023-05-10T10:02:54;8.38;;;5.28;;
32824;SDS011;51060;42.640;24.356;2023-05-10T10:05:27;8.07;;;6.43;;
32824;SDS011;51060;42.640;24.356;2023-05-10T10:07:54;7.47;;;6.10;;
32824;SDS011;51060;42.640;24.356;2023-05-10T10:10:21;6.05;;;5.43;;
32824;SDS011;51060;42.640;24.356;2023-05-10T10:12:47;7.87;;;5.80;;
32824;SDS011;51060;42.640;24.356;2023-05-10T10:15:12;8.27;;;5.80;;
32824;SDS011;51060;42.640;24.356;2023-05-10T10:17:38;6.38;;;5.72;;
32824;SDS011;51060;42.640;24.356;2023-05-10T10:20:05;6.38;;;5.55;;
32824;SDS011;51060;42.640;24.356;2023-05-10T10:22:31;11.43;;;7.28;;
32824;SDS011;51060;42.640;24.356;2023-05-10T10:24:57;6.75;;;5.43;;
32824;SDS011;51060;42.640;24.356;2023-05-10T10:27:35;8.30;;;5.50;;
32824;SDS011;51060;42.640;24.356;2023-05-10T10:33:18;5.93;;;5.10;;
32824;SDS011;51060;42.640;24.356;2023-05-10T10:36:06;7.28;;;5.40;;
32824;SDS011;51060;42.640;24.356;2023-05-10T10:38:36;10.30;;;7.10;;
32824;SDS011;51060;42.640;24.356;2023-05-10T10:41:35;12.35;;;6.60;;
32824;SDS011;51060;42.640;24.356;2023-05-10T10:54:51;11.48;;;5.88;;
32824;SDS011;51060;42.640;24.356;2023-05-10T10:57:18;5.97;;;4.97;;
32824;SDS011;51060;42.640;24.356;2023-05-10T10:59:44;6.35;;;5.28;;
32824;SDS011;51060;42.640;24.356;2023-05-10T11:04:59;5.80;;;4.88;;
32824;SDS011;51060;42.640;24.356;2023-05-10T11:07:25;8.90;;;6.07;;
32824;SDS011;51060;42.640;24.356;2023-05-10T11:09:51;6.47;;;5.10;;
32824;SDS011;51060;42.640;24.356;2023-05-10T11:12:17;6.72;;;5.45;;
32824;SDS011;51060;42.640;24.356;2023-05-10T11:14:42;5.40;;;4.87;;
32824;SDS011;51060;42.640;24.356;2023-05-10T11:17:24;7.60;;;5.13;;
32824;SDS011;51060;42.640;24.356;2023-05-10T11:20:09;5.97;;;5.37;;
32824;SDS011;51060;42.640;24.356;2023-05-10T11:22:51;7.47;;;6.15;;
32824;SDS011;51060;42.640;24.356;2023-05-10T11:25:20;7.47;;;6.37;;
32824;SDS011;51060;42.640;24.356;2023-05-10T11:27:53;8.15;;;6.30;;
32824;SDS011;51060;42.640;24.356;2023-05-10T11:30:18;7.78;;;4.97;;
32824;SDS011;51060;42.640;24.356;2023-05-10T11:32:44;5.80;;;5.15;;
32824;SDS011;51060;42.640;24.356;2023-05-10T11:35:10;7.00;;;4.72;;
32824;SDS011;51060;42.640;24.356;2023-05-10T11:37:37;6.57;;;5.87;;
32824;SDS011;51060;42.640;24.356;2023-05-10T11:40:08;6.00;;;5.23;;
32824;SDS011;51060;42.640;24.356;2023-05-10T11:42:37;5.78;;;5.15;;
32824;SDS011;51060;42.640;24.356;2023-05-10T11:45:03;6.85;;;5.38;;
32824;SDS011;51060;42.640;24.356;2023-05-10T11:47:30;8.45;;;6.00;;
32824;SDS011;51060;42.640;24.356;2023-05-10T11:49:55;9.93;;;6.50;;
32824;SDS011;51060;42.640;24.356;2023-05-10T11:52:22;9.47;;;6.00;;
32824;SDS011;51060;42.640;24.356;2023-05-10T11:54:52;5.80;;;5.13;;
32824;SDS011;51060;42.640;24.356;2023-05-10T11:57:20;7.82;;;5.30;;
32824;SDS011;51060;42.640;24.356;2023-05-10T11:59:53;8.35;;;5.15;;
32824;SDS011;51060;42.640;24.356;2023-05-10T12:02:20;8.10;;;4.50;;
32824;SDS011;51060;42.640;24.356;2023-05-10T12:04:46;5.22;;;4.72;;
32824;SDS011;51060;42.640;24.356;2023-05-10T12:20:20;7.07;;;5.03;;
32824;SDS011;51060;42.640;24.356;2023-05-10T12:22:51;7.13;;;5.17;;
32824;SDS011;51060;42.640;24.356;2023-05-10T12:25:18;10.48;;;8.35;;
32824;SDS011;51060;42.640;24.356;2023-05-10T12:28:03;7.38;;;6.53;;
32824;SDS011;51060;42.640;24.356;2023-05-10T12:30:31;15.73;;;12.27;;
32824;SDS011;51060;42.640;24.356;2023-05-10T12:35:29;7.80;;;5.90;;
32824;SDS011;51060;42.640;24.356;2023-05-10T12:37:56;7.18;;;6.45;;
32824;SDS011;51060;42.640;24.356;2023-05-10T12:40:21;9.25;;;7.85;;
32824;SDS011;51060;42.640;24.356;2023-05-10T12:42:49;8.33;;;7.63;;
32824;SDS011;51060;42.640;24.356;2023-05-10T12:45:16;11.60;;;8.67;;
32824;SDS011;51060;42.640;24.356;2023-05-10T12:47:42;7.47;;;6.13;;
32824;SDS011;51060;42.640;24.356;2023-05-10T12:50:08;17.33;;;12.15;;
32824;SDS011;51060;42.640;24.356;2023-05-10T12:52:34;9.63;;;7.75;;
32824;SDS011;51060;42.640;24.356;2023-05-10T12:54:59;12.45;;;7.70;;
32824;SDS011;51060;42.640;24.356;2023-05-10T12:57:25;11.95;;;9.80;;
32824;SDS011;51060;42.640;24.356;2023-05-10T12:59:51;10.10;;;7.15;;
32824;SDS011;51060;42.640;24.356;2023-05-10T13:02:17;7.88;;;5.95;;
32824;SDS011;51060;42.640;24.356;2023-05-10T13:04:46;10.82;;;7.57;;
32824;SDS011;51060;42.640;24.356;2023-05-10T13:07:12;9.25;;;7.50;;
32824;SDS011;51060;42.640;24.356;2023-05-10T13:09:38;6.38;;;4.90;;
32824;SDS011;51060;42.640;24.356;2023-05-10T13:12:04;4.85;;;4.35;;
32824;SDS011;51060;42.640;24.356;2023-05-10T13:14:29;6.60;;;5.20;;
32824;SDS011;51060;42.640;24.356;2023-05-10T13:16:55;14.90;;;6.03;;
32824;SDS011;51060;42.640;24.356;2023-05-10T13:19:21;6.93;;;6.22;;
32824;SDS011;51060;42.640;24.356;2023-05-10T13:21:46;7.28;;;5.72;;
32824;SDS011;51060;42.640;24.356;2023-05-10T13:24:12;6.13;;;5.43;;
32824;SDS011;51060;42.640;24.356;2023-05-10T13:26:40;8.13;;;6.75;;
32824;SDS011;51060;42.640;24.356;2023-05-10T13:29:06;8.63;;;6.97;;
32824;SDS011;51060;42.640;24.356;2023-05-10T13:31:33;8.00;;;6.70;;
32824;SDS011;51060;42.640;24.356;2023-05-10T13:33:59;6.43;;;5.82;;
32824;SDS011;51060;42.640;24.356;2023-05-10T13:36:24;8.93;;;6.32;;
32824;SDS011;51060;42.640;24.356;2023-05-10T13:38:53;6.43;;;5.10;;
32824;SDS011;51060;42.640;24.356;2023-05-10T13:41:18;7.88;;;6.40;;
32824;SDS011;51060;42.640;24.356;2023-05-10T13:43:44;9.27;;;7.25;;
32824;SDS011;51060;42.640;24.356;2023-05-10T13:46:09;7.95;;;6.53;;
32824;SDS011;51060;42.640;24.356;2023-05-10T13:48:35;8.00;;;7.00;;
32824;SDS011;51060;42.640;24.356;2023-05-10T13:51:02;10.15;;;7.35;;
32824;SDS011;51060;42.640;24.356;2023-05-10T13:53:27;11.10;;;8.02;;
32824;SDS011;51060;42.640;24.356;2023-05-10T13:55:53;7.67;;;6.27;;
32824;SDS011;51060;42.640;24.356;2023-05-10T13:58:19;5.10;;;4.20;;
32824;SDS011;51060;42.640;24.356;2023-05-10T14:00:44;5.33;;;3.90;;
32824;SDS011;51060;42.640;24.356;2023-05-10T14:03:10;9.45;;;7.63;;
32824;SDS011;51060;42.640;24.356;2023-05-10T14:05:36;9.90;;;7.33;;
32824;SDS011;51060;42.640;24.356;2023-05-10T14:08:01;10.55;;;7.47;;
32824;SDS011;51060;42.640;24.356;2023-05-10T14:10:28;6.15;;;5.25;;
32824;SDS011;51060;42.640;24.356;2023-05-10T14:12:57;6.57;;;5.87;;
32824;SDS011;51060;42.640;24.356;2023-05-10T14:15:22;6.47;;;5.10;;
32824;SDS011;51060;42.640;24.356;2023-05-10T14:17:48;8.57;;;5.83;;
32824;SDS011;51060;42.640;24.356;2023-05-10T14:20:14;8.33;;;6.10;;
32824;SDS011;51060;42.640;24.356;2023-05-10T14:22:40;7.63;;;5.83;;
32824;SDS011;51060;42.640;24.356;2023-05-10T14:25:06;6.77;;;5.93;;
32824;SDS011;51060;42.640;24.356;2023-05-10T14:27:31;8.30;;;6.90;;
32824;SDS011;51060;42.640;24.356;2023-05-10T14:29:57;9.40;;;7.67;;
32824;SDS011;51060;42.640;24.356;2023-05-10T14:32:23;11.60;;;9.40;;
32824;SDS011;51060;42.640;24.356;2023-05-10T14:34:48;7.30;;;6.60;;
32824;SDS011;51060;42.640;24.356;2023-05-10T14:37:14;12.07;;;8.53;;
32824;SDS011;51060;42.640;24.356;2023-05-10T14:39:40;10.13;;;8.00;;
32824;SDS011;51060;42.640;24.356;2023-05-10T14:42:07;10.53;;;7.63;;
32824;SDS011;51060;42.640;24.356;2023-05-10T14:44:33;10.93;;;9.83;;
32824;SDS011;51060;42.640;24.356;2023-05-10T14:46:58;9.93;;;8.87;;
32824;SDS011;51060;42.640;24.356;2023-05-10T14:49:24;9.70;;;7.90;;
32824;SDS011;51060;42.640;24.356;2023-05-10T14:51:51;10.52;;;6.80;;
32824;SDS011;51060;42.640;24.356;2023-05-10T14:54:17;7.97;;;6.07;;
32824;SDS011;51060;42.640;24.356;2023-05-10T14:56:42;9.33;;;6.47;;
32824;SDS011;51060;42.640;24.356;2023-05-10T14:59:08;19.93;;;11.73;;
32824;SDS011;51060;42.640;24.356;2023-05-10T15:01:33;7.00;;;5.73;;
32824;SDS011;51060;42.640;24.356;2023-05-10T15:04:02;8.47;;;7.53;;
32824;SDS011;51060;42.640;24.356;2023-05-10T15:06:31;16.35;;;11.18;;
32824;SDS011;51060;42.640;24.356;2023-05-10T15:08:58;13.03;;;9.40;;
32824;SDS011;51060;42.640;24.356;2023-05-10T15:11:24;8.80;;;7.63;;
32824;SDS011;51060;42.640;24.356;2023-05-10T15:13:49;6.70;;;5.25;;
32824;SDS011;51060;42.640;24.356;2023-05-10T15:16:15;7.00;;;6.30;;
32824;SDS011;51060;42.640;24.356;2023-05-10T15:18:40;14.13;;;9.97;;
32824;SDS011;51060;42.640;24.356;2023-05-10T15:21:06;9.20;;;7.35;;
32824;SDS011;51060;42.640;24.356;2023-05-10T15:23:31;12.63;;;9.70;;
32824;SDS011;51060;42.640;24.356;2023-05-10T15:25:57;13.85;;;9.30;;
32824;SDS011;51060;42.640;24.356;2023-05-10T15:28:23;13.13;;;8.85;;